Time;durP1;ratioP1;P1;durP2;ratioP2;P2;SDS_P1;SDS_P2;PMS_P1;PMS_P2;Temp;Humidity;BMP_temperature;BMP_pressure;BME280_temperature;BME280_humidity;BME280_pressure;Samples;Min_cycle;Max_cycle;Signal;HPM_P1;HPM_P2
2024/01/28 00:02:22;;;;;;;8.38;6.05;;;;;;;;;;10264610;28;20514;-61
2024/01/28 00:07:20;;;;;;;8.95;7.45;;;;;;;;;;10265324;28;20065;-61
2024/01/28 00:12:19;;;;;;;13.57;8.38;;;;;;;;;;10265069;28;20134;-61
2024/01/28 00:17:18;;;;;;;8.77;6.97;;;;;;;;;;10264418;28;20076;-61
2024/01/28 00:22:16;;;;;;;7.38;6.00;;;;;;;;;;10265215;28;20080;-62
2024/01/28 00:27:15;;;;;;;16.05;9.77;;;;;;;;;;10265213;28;20076;-62
2024/01/28 00:32:13;;;;;;;20.67;10.88;;;;;;;;;;10262463;28;20091;-62
2024/01/28 00:37:13;;;;;;;71.97;32.40;;;;;;;;;;10249816;28;20080;-61
2024/01/28 00:42:11;;;;;;;23.98;13.77;;;;;;;;;;10259245;28;20077;-61
2024/01/28 00:47:09;;;;;;;11.00;8.60;;;;;;;;;;10258692;28;20073;-61
2024/01/28 00:52:09;;;;;;;7.57;6.10;;;;;;;;;;10257143;28;20077;-61
2024/01/28 00:57:09;;;;;;;11.80;6.72;;;;;;;;;;10258191;28;20468;-60
2024/01/28 01:02:07;;;;;;;11.50;8.02;;;;;;;;;;10257786;28;20470;-62
2024/01/28 01:07:06;;;;;;;8.85;7.15;;;;;;;;;;10256655;28;20080;-62
2024/01/28 01:12:06;;;;;;;8.48;7.05;;;;;;;;;;10257725;28;20077;-62
2024/01/28 01:17:06;;;;;;;9.52;7.72;;;;;;;;;;10257191;28;20096;-62
2024/01/28 01:22:04;;;;;;;12.30;7.15;;;;;;;;;;10256068;28;20121;-61
2024/01/28 01:27:02;;;;;;;12.30;8.25;;;;;;;;;;10256928;28;20084;-61
2024/01/28 01:32:01;;;;;;;26.48;18.73;;;;;;;;;;10256703;28;20083;-61
2024/01/28 01:37:00;;;;;;;9.13;7.50;;;;;;;;;;10255797;28;20068;-61
2024/01/28 01:41:58;;;;;;;14.32;10.20;;;;;;;;;;10246698;28;20064;-61
2024/01/28 01:46:57;;;;;;;8.25;6.68;;;;;;;;;;10255453;28;20530;-61
2024/01/28 01:51:55;;;;;;;8.93;6.80;;;;;;;;;;10244224;28;20077;-61
2024/01/28 01:56:55;;;;;;;8.98;6.72;;;;;;;;;;10256387;28;20064;-61
2024/01/28 02:01:54;;;;;;;10.10;6.75;;;;;;;;;;10255467;28;20072;-61
2024/01/28 02:06:52;;;;;;;11.93;9.20;;;;;;;;;;10255223;28;20081;-62
2024/01/28 02:11:51;;;;;;;28.35;20.00;;;;;;;;;;10254322;28;20069;-62
2024/01/28 02:16:50;;;;;;;10.45;6.68;;;;;;;;;;10254640;28;20095;-61
2024/01/28 02:21:48;;;;;;;12.13;7.32;;;;;;;;;;10254673;28;20373;-61
2024/01/28 02:26:48;;;;;;;9.30;6.88;;;;;;;;;;10253525;28;20069;-61
2024/01/28 02:31:46;;;;;;;10.60;8.13;;;;;;;;;;10254436;28;20065;-61
2024/01/28 02:36:45;;;;;;;8.60;6.00;;;;;;;;;;10254254;28;20075;-60
2024/01/28 02:41:43;;;;;;;9.10;6.63;;;;;;;;;;10253662;28;20073;-61
2024/01/28 02:46:43;;;;;;;15.70;13.43;;;;;;;;;;10243734;28;20092;-61
2024/01/28 02:51:44;;;;;;;16.58;14.88;;;;;;;;;;10244139;28;20068;-61
2024/01/28 02:56:42;;;;;;;10.82;9.85;;;;;;;;;;10253973;28;20521;-61
2024/01/28 03:01:46;;;;;;;9.55;8.27;;;;;;;;;;10253114;28;20080;-61
2024/01/28 03:06:44;;;;;;;7.15;6.53;;;;;;;;;;10244311;28;20077;-61
2024/01/28 03:11:42;;;;;;;8.48;7.68;;;;;;;;;;10243367;28;20104;-62
2024/01/28 03:16:41;;;;;;;8.90;7.40;;;;;;;;;;10241838;28;20133;-61
2024/01/28 03:21:40;;;;;;;8.35;6.80;;;;;;;;;;10253170;28;20085;-61
2024/01/28 03:26:39;;;;;;;9.82;6.85;;;;;;;;;;10252641;28;20321;-62
2024/01/28 03:31:38;;;;;;;10.95;9.00;;;;;;;;;;10251906;28;20073;-60
2024/01/28 03:36:37;;;;;;;11.18;7.72;;;;;;;;;;10252446;28;20080;-61
2024/01/28 03:41:38;;;;;;;8.40;6.45;;;;;;;;;;10249944;28;20083;-61
2024/01/28 03:46:38;;;;;;;7.68;6.68;;;;;;;;;;10250324;28;20080;-61
2024/01/28 03:51:36;;;;;;;6.45;5.80;;;;;;;;;;10252134;28;20080;-61
2024/01/28 03:56:37;;;;;;;6.70;5.97;;;;;;;;;;10252207;28;20068;-61
2024/01/28 04:01:35;;;;;;;7.22;6.30;;;;;;;;;;10252313;28;20081;-60
2024/01/28 04:06:34;;;;;;;9.55;7.38;;;;;;;;;;10251277;28;20064;-61
2024/01/28 04:11:32;;;;;;;8.57;6.47;;;;;;;;;;10254735;28;20065;-60
2024/01/28 04:16:32;;;;;;;7.60;5.15;;;;;;;;;;10258968;28;20096;-59
2024/01/28 04:21:32;;;;;;;9.90;6.95;;;;;;;;;;10258711;28;20182;-61
2024/01/28 04:26:31;;;;;;;14.30;12.63;;;;;;;;;;10259185;28;20344;-61
2024/01/28 04:31:29;;;;;;;11.63;9.23;;;;;;;;;;10259122;28;20088;-61
2024/01/28 04:36:29;;;;;;;10.32;8.15;;;;;;;;;;10250611;28;20073;-62
2024/01/28 04:41:27;;;;;;;16.20;13.07;;;;;;;;;;10250713;28;20080;-61
2024/01/28 04:46:25;;;;;;;10.52;8.38;;;;;;;;;;10259126;28;20081;-61
2024/01/28 04:51:23;;;;;;;8.65;6.60;;;;;;;;;;10257395;28;20076;-61
2024/01/28 04:56:23;;;;;;;9.20;7.75;;;;;;;;;;10257769;28;20069;-60
2024/01/28 05:01:21;;;;;;;16.95;12.30;;;;;;;;;;10257879;28;20076;-61
2024/01/28 05:06:20;;;;;;;26.17;18.70;;;;;;;;;;10257510;28;20072;-62
2024/01/28 05:11:18;;;;;;;10.52;9.05;;;;;;;;;;10257127;28;20169;-62
2024/01/28 05:16:18;;;;;;;9.75;7.35;;;;;;;;;;10255409;28;20091;-61
2024/01/28 05:21:16;;;;;;;9.25;7.25;;;;;;;;;;10256889;28;20076;-62
2024/01/28 05:26:15;;;;;;;8.52;6.03;;;;;;;;;;10254982;28;20080;-60
2024/01/28 05:31:13;;;;;;;16.95;10.35;;;;;;;;;;10247209;28;20080;-60
2024/01/28 05:36:13;;;;;;;32.25;20.08;;;;;;;;;;10249182;28;20072;-61
2024/01/28 05:41:11;;;;;;;10.82;6.28;;;;;;;;;;10245388;28;20073;-60
2024/01/28 05:46:10;;;;;;;8.27;5.55;;;;;;;;;;10254531;28;20053;-61
2024/01/28 05:51:08;;;;;;;7.65;5.97;;;;;;;;;;10256347;28;20084;-61
2024/01/28 05:56:08;;;;;;;9.55;7.28;;;;;;;;;;10255567;28;20084;-61
2024/01/28 06:01:08;;;;;;;10.48;7.15;;;;;;;;;;10255419;28;20072;-61
2024/01/28 06:06:07;;;;;;;9.02;6.90;;;;;;;;;;10254540;28;20530;-61
2024/01/28 06:11:07;;;;;;;8.32;6.38;;;;;;;;;;10252109;28;20091;-62
2024/01/28 06:16:07;;;;;;;7.95;5.65;;;;;;;;;;10254495;28;20088;-61
2024/01/28 06:21:05;;;;;;;8.13;6.40;;;;;;;;;;10255657;28;20080;-61
2024/01/28 06:26:03;;;;;;;24.67;16.38;;;;;;;;;;10254484;28;20077;-62
2024/01/28 06:31:03;;;;;;;16.40;9.60;;;;;;;;;;10252404;28;20068;-61
2024/01/28 06:36:01;;;;;;;10.82;6.88;;;;;;;;;;10252597;28;20092;-59
2024/01/28 06:41:00;;;;;;;10.75;8.60;;;;;;;;;;10250585;28;20072;-60
2024/01/28 06:45:59;;;;;;;12.85;8.98;;;;;;;;;;10239119;28;20428;-61
2024/01/28 06:50:59;;;;;;;14.48;11.07;;;;;;;;;;10248030;28;20076;-60
2024/01/28 06:55:57;;;;;;;13.40;9.25;;;;;;;;;;10240972;28;20542;-62
2024/01/28 07:00:56;;;;;;;23.08;17.60;;;;;;;;;;10248732;28;20065;-62
2024/01/28 07:05:55;;;;;;;12.55;9.40;;;;;;;;;;10249171;28;20083;-61
2024/01/28 07:10:56;;;;;;;13.25;10.40;;;;;;;;;;10248255;28;20079;-62
2024/01/28 07:15:55;;;;;;;16.58;12.35;;;;;;;;;;10251566;28;20081;-61
2024/01/28 07:20:53;;;;;;;17.98;14.02;;;;;;;;;;10252403;28;20541;-61
2024/01/28 07:25:51;;;;;;;12.35;8.98;;;;;;;;;;10253240;28;20538;-61
2024/01/28 07:30:51;;;;;;;16.83;14.77;;;;;;;;;;10252828;28;20482;-61
2024/01/28 07:35:49;;;;;;;50.45;43.97;;;;;;;;;;10249159;28;20083;-62
2024/01/28 07:40:47;;;;;;;63.78;43.05;;;;;;;;;;10247995;28;20087;-61
2024/01/28 07:45:48;;;;;;;15.38;7.78;;;;;;;;;;10251584;28;20083;-63
2024/01/28 07:50:50;;;;;;;13.45;8.32;;;;;;;;;;10256311;28;20553;-62
2024/01/28 07:55:49;;;;;;;18.13;12.57;;;;;;;;;;10256020;28;20471;-62
2024/01/28 08:00:48;;;;;;;25.23;16.02;;;;;;;;;;10257164;28;20084;-62
2024/01/28 08:05:47;;;;;;;10.98;9.43;;;;;;;;;;10257469;28;20538;-62
2024/01/28 08:10:46;;;;;;;13.82;9.73;;;;;;;;;;10259103;28;20056;-62
2024/01/28 08:15:44;;;;;;;13.13;8.38;;;;;;;;;;10248371;28;20553;-60
2024/01/28 08:20:42;;;;;;;11.63;9.52;;;;;;;;;;10258397;28;20069;-62
2024/01/28 08:25:42;;;;;;;11.88;9.15;;;;;;;;;;10258923;28;20072;-61
2024/01/28 08:30:40;;;;;;;14.15;10.65;;;;;;;;;;10258688;28;20077;-62
2024/01/28 08:35:39;;;;;;;15.82;11.48;;;;;;;;;;10257822;28;20068;-62
2024/01/28 08:40:40;;;;;;;14.45;9.50;;;;;;;;;;10257560;28;20088;-61
2024/01/28 08:45:43;;;;;;;14.35;9.68;;;;;;;;;;10263594;28;20077;-61
2024/01/28 08:50:48;;;;;;;16.47;14.30;;;;;;;;;;10250585;28;20474;-62
2024/01/28 08:55:47;;;;;;;12.25;10.68;;;;;;;;;;10247185;28;20081;-62
2024/01/28 09:00:47;;;;;;;18.15;13.18;;;;;;;;;;10258064;28;20042;-62
2024/01/28 09:05:47;;;;;;;17.73;12.43;;;;;;;;;;10247478;28;20068;-60
2024/01/28 09:10:48;;;;;;;16.88;12.27;;;;;;;;;;10256899;28;20065;-62
2024/01/28 09:15:51;;;;;;;13.57;10.13;;;;;;;;;;10256053;28;20486;-62
2024/01/28 09:20:51;;;;;;;13.52;11.25;;;;;;;;;;10254188;28;20488;-61
2024/01/28 09:25:49;;;;;;;28.98;18.65;;;;;;;;;;10256847;28;20065;-62
2024/01/28 09:30:47;;;;;;;19.85;13.80;;;;;;;;;;10257132;28;20091;-62
2024/01/28 09:35:52;;;;;;;25.27;17.73;;;;;;;;;;10256555;28;20506;-62
2024/01/28 09:40:50;;;;;;;17.33;13.52;;;;;;;;;;10255805;28;20051;-61
2024/01/28 09:45:49;;;;;;;23.48;15.18;;;;;;;;;;10255507;28;20095;-61
2024/01/28 09:50:49;;;;;;;24.25;16.23;;;;;;;;;;10255390;28;20083;-61
2024/01/28 09:55:48;;;;;;;14.18;10.07;;;;;;;;;;10254793;28;20087;-61
2024/01/28 10:00:47;;;;;;;16.48;12.45;;;;;;;;;;10255184;28;20065;-60
2024/01/28 10:05:45;;;;;;;14.13;10.63;;;;;;;;;;10255978;28;20092;-61
2024/01/28 10:10:46;;;;;;;13.02;11.27;;;;;;;;;;10242860;28;20525;-60
2024/01/28 10:15:53;;;;;;;12.07;10.40;;;;;;;;;;10254148;28;20080;-62
2024/01/28 10:20:52;;;;;;;14.07;10.57;;;;;;;;;;10254696;28;20501;-62
2024/01/28 10:25:54;;;;;;;19.55;12.82;;;;;;;;;;10254502;28;20065;-62
2024/01/28 10:30:52;;;;;;;18.33;12.55;;;;;;;;;;10254511;28;20076;-60
2024/01/28 10:35:51;;;;;;;24.42;17.27;;;;;;;;;;10253936;28;20071;-62
2024/01/28 10:40:50;;;;;;;25.00;17.05;;;;;;;;;;10256018;28;20057;-60
2024/01/28 10:45:52;;;;;;;26.38;18.60;;;;;;;;;;10255747;28;20080;-62
2024/01/28 10:50:51;;;;;;;40.65;25.80;;;;;;;;;;10255110;28;20199;-60
2024/01/28 10:55:50;;;;;;;32.75;21.45;;;;;;;;;;10254420;28;20084;-62
2024/01/28 11:00:50;;;;;;;34.90;19.40;;;;;;;;;;10254294;28;20072;-63
2024/01/28 11:05:48;;;;;;;53.38;38.95;;;;;;;;;;10251365;28;20061;-60
2024/01/28 11:10:47;;;;;;;51.75;31.08;;;;;;;;;;10253045;28;20064;-62
2024/01/28 11:15:46;;;;;;;42.13;28.13;;;;;;;;;;10252812;28;20092;-61
2024/01/28 11:20:46;;;;;;;40.03;25.27;;;;;;;;;;10240263;28;20121;-60
2024/01/28 11:25:46;;;;;;;27.38;20.73;;;;;;;;;;10245208;28;20084;-61
2024/01/28 11:30:52;;;;;;;21.65;16.60;;;;;;;;;;10250574;28;20563;-60
2024/01/28 11:35:52;;;;;;;19.20;12.93;;;;;;;;;;10251074;28;20092;-60
2024/01/28 11:40:55;;;;;;;24.52;16.33;;;;;;;;;;10251606;28;20080;-61
2024/01/28 11:45:53;;;;;;;16.75;13.73;;;;;;;;;;10250426;28;20072;-60
2024/01/28 11:50:53;;;;;;;37.33;21.50;;;;;;;;;;10250672;28;20069;-62
2024/01/28 11:55:51;;;;;;;56.25;35.95;;;;;;;;;;10250082;28;20103;-63
2024/01/28 12:00:50;;;;;;;13.38;10.35;;;;;;;;;;10253177;28;20061;-62
2024/01/28 12:05:48;;;;;;;23.85;17.25;;;;;;;;;;10251916;28;20100;-62
2024/01/28 12:10:57;;;;;;;29.50;21.63;;;;;;;;;;10249449;28;20076;-62
2024/01/28 12:15:56;;;;;;;51.50;44.72;;;;;;;;;;10240829;28;20080;-63
2024/01/28 12:20:55;;;;;;;16.45;12.35;;;;;;;;;;10254783;28;20081;-63
2024/01/28 12:25:53;;;;;;;17.02;13.05;;;;;;;;;;10245364;28;20077;-61
2024/01/28 12:30:54;;;;;;;21.13;16.73;;;;;;;;;;10244019;28;20087;-61
2024/01/28 12:35:52;;;;;;;16.30;12.32;;;;;;;;;;10251745;28;20065;-62
2024/01/28 12:40:51;;;;;;;33.28;24.17;;;;;;;;;;10252706;28;20067;-62
2024/01/28 12:45:49;;;;;;;31.70;26.77;;;;;;;;;;10253624;28;20068;-61
2024/01/28 12:50:49;;;;;;;14.77;12.57;;;;;;;;;;10258098;28;20091;-61
2024/01/28 12:55:47;;;;;;;15.05;12.90;;;;;;;;;;10248550;28;20064;-60
2024/01/28 13:00:46;;;;;;;16.25;12.93;;;;;;;;;;10248590;28;20065;-61
2024/01/28 13:05:44;;;;;;;30.27;20.25;;;;;;;;;;10257976;28;20068;-61
2024/01/28 13:10:44;;;;;;;19.65;13.85;;;;;;;;;;10257945;28;20127;-61
2024/01/28 13:15:42;;;;;;;20.85;14.57;;;;;;;;;;10256373;28;20092;-62
2024/01/28 13:20:40;;;;;;;31.40;23.73;;;;;;;;;;10257250;28;20073;-60
2024/01/28 13:25:40;;;;;;;24.85;18.83;;;;;;;;;;10257051;28;20526;-62
2024/01/28 13:30:39;;;;;;;23.80;17.25;;;;;;;;;;10256305;28;20073;-62
2024/01/28 13:35:38;;;;;;;17.88;12.50;;;;;;;;;;10256722;28;20529;-61
2024/01/28 13:40:36;;;;;;;24.98;14.90;;;;;;;;;;10256215;28;20092;-61
2024/01/28 13:45:34;;;;;;;24.58;17.17;;;;;;;;;;10255190;28;20521;-62
2024/01/28 13:50:34;;;;;;;28.15;19.08;;;;;;;;;;10256214;28;20076;-62
2024/01/28 13:55:32;;;;;;;29.73;22.83;;;;;;;;;;10245522;28;20494;-62
2024/01/28 14:00:30;;;;;;;25.15;19.05;;;;;;;;;;10246130;28;20084;-62
2024/01/28 14:05:28;;;;;;;33.65;23.08;;;;;;;;;;10256155;28;20079;-61
2024/01/28 14:10:28;;;;;;;31.85;21.65;;;;;;;;;;10255989;28;20088;-61
2024/01/28 14:15:26;;;;;;;53.45;33.50;;;;;;;;;;10254799;28;20088;-61
2024/01/28 14:20:24;;;;;;;46.67;32.63;;;;;;;;;;10253792;28;20467;-61
2024/01/28 14:25:23;;;;;;;55.45;37.67;;;;;;;;;;10254666;28;20080;-62
2024/01/28 14:30:22;;;;;;;111.28;70.28;;;;;;;;;;10252513;28;20077;-62
2024/01/28 14:35:20;;;;;;;34.28;25.95;;;;;;;;;;10254700;28;20064;-61
2024/01/28 14:40:19;;;;;;;29.65;22.42;;;;;;;;;;10258220;28;20092;-62
2024/01/28 14:45:17;;;;;;;29.45;19.95;;;;;;;;;;10252508;28;20073;-62
2024/01/28 14:50:17;;;;;;;30.88;23.73;;;;;;;;;;10246693;28;20072;-60
2024/01/28 14:55:15;;;;;;;25.20;17.23;;;;;;;;;;10241093;28;20084;-61
2024/01/28 15:00:14;;;;;;;39.70;31.27;;;;;;;;;;10251998;28;20463;-62
2024/01/28 15:05:21;;;;;;;74.13;41.60;;;;;;;;;;10241924;28;20492;-60
2024/01/28 15:10:19;;;;;;;75.25;44.15;;;;;;;;;;10248506;28;20124;-61
2024/01/28 15:15:17;;;;;;;57.78;37.83;;;;;;;;;;10251242;28;20080;-61
2024/01/28 15:20:20;;;;;;;51.08;35.50;;;;;;;;;;10247246;28;20094;-61
2024/01/28 15:25:20;;;;;;;46.83;35.80;;;;;;;;;;10257474;28;20533;-61
2024/01/28 15:30:21;;;;;;;85.25;56.53;;;;;;;;;;10255372;28;20080;-62
2024/01/28 15:35:21;;;;;;;39.78;28.60;;;;;;;;;;10254628;28;20064;-61
2024/01/28 15:40:20;;;;;;;36.85;26.77;;;;;;;;;;10251266;28;20541;-62
2024/01/28 15:45:19;;;;;;;82.18;51.35;;;;;;;;;;10252947;28;20494;-61
2024/01/28 15:50:17;;;;;;;44.38;27.67;;;;;;;;;;10251304;28;20072;-62
2024/01/28 15:55:15;;;;;;;32.35;24.88;;;;;;;;;;10249529;28;20076;-62
2024/01/28 16:00:26;;;;;;;28.33;23.92;;;;;;;;;;10250362;28;20537;-61
2024/01/28 16:05:25;;;;;;;27.90;20.50;;;;;;;;;;10253415;28;20501;-61
2024/01/28 16:10:26;;;;;;;28.33;21.55;;;;;;;;;;10260229;28;20117;-62
2024/01/28 16:15:26;;;;;;;29.77;22.15;;;;;;;;;;10257798;28;20094;-62
2024/01/28 16:20:26;;;;;;;168.20;95.35;;;;;;;;;;10261862;28;20069;-62
2024/01/28 16:25:27;;;;;;;185.73;103.00;;;;;;;;;;10258561;28;20285;-62
2024/01/28 16:30:25;;;;;;;80.93;46.83;;;;;;;;;;10257524;28;20064;-61
2024/01/28 16:35:25;;;;;;;30.73;27.00;;;;;;;;;;10261954;28;20506;-61
2024/01/28 16:40:27;;;;;;;27.23;24.02;;;;;;;;;;10258975;28;20069;-61
2024/01/28 16:45:28;;;;;;;25.23;20.23;;;;;;;;;;10259665;28;20081;-62
2024/01/28 16:50:27;;;;;;;18.95;15.50;;;;;;;;;;10254977;28;20077;-61
2024/01/28 16:55:30;;;;;;;22.35;15.27;;;;;;;;;;10262179;28;20076;-62
2024/01/28 17:00:28;;;;;;;18.40;15.00;;;;;;;;;;10260238;28;20091;-61
2024/01/28 17:05:27;;;;;;;15.98;14.02;;;;;;;;;;10260717;28;20466;-61
2024/01/28 17:10:28;;;;;;;22.20;17.77;;;;;;;;;;10258798;28;20511;-61
2024/01/28 17:15:30;;;;;;;40.83;29.80;;;;;;;;;;10258668;28;20096;-63
2024/01/28 17:20:28;;;;;;;17.95;14.07;;;;;;;;;;10255600;28;20325;-62
2024/01/28 17:25:28;;;;;;;26.20;21.55;;;;;;;;;;10256976;28;20069;-62
2024/01/28 17:30:34;;;;;;;18.13;16.08;;;;;;;;;;10256045;28;20069;-63
2024/01/28 17:35:33;;;;;;;15.55;13.07;;;;;;;;;;10263697;28;20081;-62
2024/01/28 17:40:32;;;;;;;14.65;12.73;;;;;;;;;;10261052;28;20107;-61
2024/01/28 17:45:32;;;;;;;13.52;11.95;;;;;;;;;;10254334;28;20077;-62
2024/01/28 17:50:36;;;;;;;19.30;15.50;;;;;;;;;;10255048;28;20076;-62
2024/01/28 17:55:36;;;;;;;12.52;10.95;;;;;;;;;;10255029;28;20079;-61
2024/01/28 18:00:39;;;;;;;12.02;10.13;;;;;;;;;;10252994;28;20076;-63
2024/01/28 18:05:37;;;;;;;15.25;12.93;;;;;;;;;;10254994;28;20541;-62
2024/01/28 18:10:46;;;;;;;19.38;14.50;;;;;;;;;;10254850;28;20064;-61
2024/01/28 18:15:48;;;;;;;16.90;13.25;;;;;;;;;;10250799;28;20542;-63
2024/01/28 18:20:47;;;;;;;15.38;12.57;;;;;;;;;;10253059;28;20481;-63
2024/01/28 18:25:45;;;;;;;18.55;13.57;;;;;;;;;;10254176;28;20068;-62
2024/01/28 18:30:46;;;;;;;16.48;13.18;;;;;;;;;;10252765;28;20091;-63
2024/01/28 18:35:46;;;;;;;15.65;11.80;;;;;;;;;;10250938;28;20447;-62
2024/01/28 18:40:57;;;;;;;14.05;11.88;;;;;;;;;;10255113;28;20079;-62
2024/01/28 18:45:58;;;;;;;14.52;12.15;;;;;;;;;;10252887;28;20064;-62
2024/01/28 18:50:58;;;;;;;11.52;9.93;;;;;;;;;;10251993;28;20068;-63
2024/01/28 18:55:57;;;;;;;12.93;11.20;;;;;;;;;;10255719;28;20073;-63
2024/01/28 19:00:56;;;;;;;13.48;11.85;;;;;;;;;;10249020;28;20084;-63
2024/01/28 19:05:56;;;;;;;13.23;11.90;;;;;;;;;;10250199;28;20072;-62
2024/01/28 19:10:55;;;;;;;13.18;11.75;;;;;;;;;;10251826;28;20077;-62
2024/01/28 19:15:55;;;;;;;15.27;10.95;;;;;;;;;;10250908;28;20083;-63
2024/01/28 19:20:55;;;;;;;13.18;11.30;;;;;;;;;;10255258;28;20089;-62
2024/01/28 19:26:00;;;;;;;17.13;12.20;;;;;;;;;;10250845;28;20091;-62
2024/01/28 19:30:59;;;;;;;18.02;13.25;;;;;;;;;;10251495;28;20095;-63
2024/01/28 19:35:57;;;;;;;14.73;11.52;;;;;;;;;;10249715;28;20069;-62
2024/01/28 19:40:55;;;;;;;16.52;12.57;;;;;;;;;;10255588;28;20163;-62
2024/01/28 19:45:56;;;;;;;14.75;10.73;;;;;;;;;;10258012;28;20076;-62
2024/01/28 19:50:54;;;;;;;17.65;13.57;;;;;;;;;;10261981;28;20072;-63
2024/01/28 19:55:55;;;;;;;12.55;10.30;;;;;;;;;;10260896;28;20124;-62
2024/01/28 20:00:55;;;;;;;13.25;11.15;;;;;;;;;;10259291;28;20083;-62
2024/01/28 20:05:55;;;;;;;12.93;11.02;;;;;;;;;;10258285;28;20072;-62
2024/01/28 20:10:57;;;;;;;13.70;11.02;;;;;;;;;;10261173;28;20065;-63
2024/01/28 20:15:57;;;;;;;22.30;14.25;;;;;;;;;;10257599;28;20069;-63
2024/01/28 20:20:56;;;;;;;17.63;12.60;;;;;;;;;;10259713;28;20536;-62
2024/01/28 20:25:58;;;;;;;13.02;11.50;;;;;;;;;;10262726;28;20072;-63
2024/01/28 20:31:00;;;;;;;12.03;9.83;;;;;;;;;;10263700;28;20075;-63
2024/01/28 20:35:59;;;;;;;20.13;16.20;;;;;;;;;;10262953;28;20061;-62
2024/01/28 20:41:00;;;;;;;11.68;10.48;;;;;;;;;;10264411;28;20080;-63
2024/01/28 20:46:03;;;;;;;12.90;11.55;;;;;;;;;;10259190;28;20077;-62
2024/01/28 20:51:01;;;;;;;10.57;9.45;;;;;;;;;;10256525;28;20068;-64
2024/01/28 20:56:06;;;;;;;11.05;9.85;;;;;;;;;;10250988;28;20069;-62
2024/01/28 21:01:06;;;;;;;14.40;9.70;;;;;;;;;;10254833;28;20202;-63
2024/01/28 21:06:05;;;;;;;11.93;10.10;;;;;;;;;;10257531;28;20084;-63
2024/01/28 21:11:06;;;;;;;13.68;10.18;;;;;;;;;;10258610;28;20088;-62
2024/01/28 21:16:11;;;;;;;11.13;9.13;;;;;;;;;;10259148;28;20076;-62
2024/01/28 21:21:10;;;;;;;11.50;8.30;;;;;;;;;;10253499;28;20516;-62
2024/01/28 21:26:14;;;;;;;13.35;9.63;;;;;;;;;;10254279;28;20068;-63
2024/01/28 21:31:14;;;;;;;10.00;8.00;;;;;;;;;;10254338;28;20069;-62
2024/01/28 21:36:15;;;;;;;10.75;7.90;;;;;;;;;;10255500;28;20812;-61
2024/01/28 21:41:13;;;;;;;34.90;22.25;;;;;;;;;;10251143;28;20072;-62
2024/01/28 21:46:13;;;;;;;12.25;9.10;;;;;;;;;;10252183;28;20529;-62
2024/01/28 21:51:22;;;;;;;11.40;10.05;;;;;;;;;;10252093;28;20100;-62
2024/01/28 21:56:22;;;;;;;14.95;10.68;;;;;;;;;;10255515;28;20068;-62
2024/01/28 22:01:26;;;;;;;13.75;11.75;;;;;;;;;;10260112;28;20076;-62
2024/01/28 22:06:26;;;;;;;10.18;8.35;;;;;;;;;;10257919;28;20068;-62
2024/01/28 22:11:26;;;;;;;12.63;10.35;;;;;;;;;;10255515;28;20061;-62
2024/01/28 22:16:24;;;;;;;15.73;11.35;;;;;;;;;;10251102;28;20064;-62
2024/01/28 22:21:27;;;;;;;12.25;10.00;;;;;;;;;;10254880;28;20098;-62
2024/01/28 22:26:27;;;;;;;13.27;10.90;;;;;;;;;;10255944;28;20068;-62
2024/01/28 22:31:25;;;;;;;9.80;8.73;;;;;;;;;;10254880;28;20069;-62
2024/01/28 22:36:29;;;;;;;9.13;8.15;;;;;;;;;;10254869;28;20170;-62
2024/01/28 22:41:32;;;;;;;10.10;8.88;;;;;;;;;;10255320;28;20075;-61
2024/01/28 22:46:45;;;;;;;14.38;11.57;;;;;;;;;;10252833;28;20072;-61
2024/01/28 22:51:51;;;;;;;10.27;9.27;;;;;;;;;;10252816;28;20069;-62
2024/01/28 22:56:55;;;;;;;13.05;9.50;;;;;;;;;;10256672;28;20581;-61
2024/01/28 23:01:54;;;;;;;11.52;9.20;;;;;;;;;;10247656;28;20077;-62
2024/01/28 23:06:52;;;;;;;12.20;8.85;;;;;;;;;;10256663;28;20120;-62
2024/01/28 23:11:51;;;;;;;8.35;7.40;;;;;;;;;;10249500;28;20072;-62
2024/01/28 23:16:50;;;;;;;11.93;8.82;;;;;;;;;;10250704;28;20107;-62
2024/01/28 23:21:48;;;;;;;9.55;8.27;;;;;;;;;;10254594;28;20541;-60
2024/01/28 23:26:47;;;;;;;9.90;8.88;;;;;;;;;;10251291;28;20088;-61
2024/01/28 23:31:45;;;;;;;9.73;8.10;;;;;;;;;;10252735;28;20170;-61
2024/01/28 23:36:45;;;;;;;9.13;8.05;;;;;;;;;;10250723;28;20088;-62
2024/01/28 23:41:43;;;;;;;9.40;8.15;;;;;;;;;;10251694;28;20072;-62
2024/01/28 23:46:42;;;;;;;11.32;10.13;;;;;;;;;;10247661;28;20072;-60
2024/01/28 23:51:40;;;;;;;11.55;9.48;;;;;;;;;;10247247;28;20072;-61
2024/01/28 23:56:39;;;;;;;12.18;9.93;;;;;;;;;;10247950;28;20521;-62
